sensor_id;sensor_type;location;lat;lon;timestamp;temperature;humidity
24207;DHT22;12351;52.284;9.160;2023-03-21T00:00:46;7.60;99.90
24207;DHT22;12351;52.284;9.160;2023-03-21T00:03:36;7.60;99.90
24207;DHT22;12351;52.284;9.160;2023-03-21T00:06:28;7.60;99.90
24207;DHT22;12351;52.284;9.160;2023-03-21T00:09:17;7.60;99.90
24207;DHT22;12351;52.284;9.160;2023-03-21T00:12:07;7.60;99.90
24207;DHT22;12351;52.284;9.160;2023-03-21T00:14:59;7.60;99.90
24207;DHT22;12351;52.284;9.160;2023-03-21T00:17:50;7.60;99.90
24207;DHT22;12351;52.284;9.160;2023-03-21T00:20:40;7.70;99.90
24207;DHT22;12351;52.284;9.160;2023-03-21T00:23:33;7.70;99.90
24207;DHT22;12351;52.284;9.160;2023-03-21T00:26:23;7.70;99.90
24207;DHT22;12351;52.284;9.160;2023-03-21T00:29:14;7.70;99.90
24207;DHT22;12351;52.284;9.160;2023-03-21T00:32:07;7.70;99.90
24207;DHT22;12351;52.284;9.160;2023-03-21T00:34:55;7.70;99.90
24207;DHT22;12351;52.284;9.160;2023-03-21T00:37:46;7.70;99.90
24207;DHT22;12351;52.284;9.160;2023-03-21T00:40:37;7.70;99.90
24207;DHT22;12351;52.284;9.160;2023-03-21T00:43:26;7.70;99.90
24207;DHT22;12351;52.284;9.160;2023-03-21T00:46:18;7.70;99.90
24207;DHT22;12351;52.284;9.160;2023-03-21T00:49:09;7.80;99.90
24207;DHT22;12351;52.284;9.160;2023-03-21T00:52:03;7.70;99.90
24207;DHT22;12351;52.284;9.160;2023-03-21T00:54:49;7.70;99.90
24207;DHT22;12351;52.284;9.160;2023-03-21T00:57:40;7.70;99.90
24207;DHT22;12351;52.284;9.160;2023-03-21T01:00:30;7.80;99.90
24207;DHT22;12351;52.284;9.160;2023-03-21T01:03:23;7.70;99.90
24207;DHT22;12351;52.284;9.160;2023-03-21T01:06:16;7.70;99.90
24207;DHT22;12351;52.284;9.160;2023-03-21T01:09:05;7.70;99.90
24207;DHT22;12351;52.284;9.160;2023-03-21T01:11:55;7.70;99.90
24207;DHT22;12351;52.284;9.160;2023-03-21T01:14:45;7.70;99.90
24207;DHT22;12351;52.284;9.160;2023-03-21T01:17:35;7.70;99.90
24207;DHT22;12351;52.284;9.160;2023-03-21T01:20:25;7.60;99.90
24207;DHT22;12351;52.284;9.160;2023-03-21T01:23:16;7.70;99.90
24207;DHT22;12351;52.284;9.160;2023-03-21T01:26:09;7.70;99.90
24207;DHT22;12351;52.284;9.160;2023-03-21T01:29:01;7.80;99.90
24207;DHT22;12351;52.284;9.160;2023-03-21T01:31:51;7.80;99.90
24207;DHT22;12351;52.284;9.160;2023-03-21T01:34:41;7.70;99.90
24207;DHT22;12351;52.284;9.160;2023-03-21T01:37:30;7.70;99.90
24207;DHT22;12351;52.284;9.160;2023-03-21T01:40:23;7.70;99.90
24207;DHT22;12351;52.284;9.160;2023-03-21T01:43:18;7.70;99.90
24207;DHT22;12351;52.284;9.160;2023-03-21T01:51:50;7.80;99.90
24207;DHT22;12351;52.284;9.160;2023-03-21T01:54:38;7.70;99.90
24207;DHT22;12351;52.284;9.160;2023-03-21T01:57:32;7.80;99.90
24207;DHT22;12351;52.284;9.160;2023-03-21T02:00:23;7.80;99.90
24207;DHT22;12351;52.284;9.160;2023-03-21T02:03:17;7.80;99.90
24207;DHT22;12351;52.284;9.160;2023-03-21T02:08:56;7.80;99.90
24207;DHT22;12351;52.284;9.160;2023-03-21T02:11:48;7.80;99.90
24207;DHT22;12351;52.284;9.160;2023-03-21T02:14:41;7.80;99.90
24207;DHT22;12351;52.284;9.160;2023-03-21T02:28:59;7.80;99.90
24207;DHT22;12351;52.284;9.160;2023-03-21T02:31:51;7.90;99.90
24207;DHT22;12351;52.284;9.160;2023-03-21T02:40:24;7.80;99.90
24207;DHT22;12351;52.284;9.160;2023-03-21T02:43:17;7.80;99.90
24207;DHT22;12351;52.284;9.160;2023-03-21T02:46:06;7.80;99.90
24207;DHT22;12351;52.284;9.160;2023-03-21T02:49:00;7.90;99.90
24207;DHT22;12351;52.284;9.160;2023-03-21T02:51:50;7.90;99.90
24207;DHT22;12351;52.284;9.160;2023-03-21T02:54:38;7.90;99.90
24207;DHT22;12351;52.284;9.160;2023-03-21T02:57:31;7.90;99.90
24207;DHT22;12351;52.284;9.160;2023-03-21T03:00:25;7.90;99.90
24207;DHT22;12351;52.284;9.160;2023-03-21T03:03:15;7.90;99.90
24207;DHT22;12351;52.284;9.160;2023-03-21T03:06:12;7.90;99.90
24207;DHT22;12351;52.284;9.160;2023-03-21T03:11:52;7.90;99.90
24207;DHT22;12351;52.284;9.160;2023-03-21T03:14:44;7.90;99.90
24207;DHT22;12351;52.284;9.160;2023-03-21T03:23:15;7.90;99.90
24207;DHT22;12351;52.284;9.160;2023-03-21T03:26:04;7.90;99.90
24207;DHT22;12351;52.284;9.160;2023-03-21T03:28:55;7.90;99.90
24207;DHT22;12351;52.284;9.160;2023-03-21T03:31:47;7.90;99.90
24207;DHT22;12351;52.284;9.160;2023-03-21T03:34:39;7.90;99.90
24207;DHT22;12351;52.284;9.160;2023-03-21T03:37:31;7.90;99.90
24207;DHT22;12351;52.284;9.160;2023-03-21T03:40:23;7.90;99.90
24207;DHT22;12351;52.284;9.160;2023-03-21T03:43:14;7.90;99.90
24207;DHT22;12351;52.284;9.160;2023-03-21T03:46:10;7.90;99.90
24207;DHT22;12351;52.284;9.160;2023-03-21T03:49:01;7.90;99.90
24207;DHT22;12351;52.284;9.160;2023-03-21T03:51:53;7.90;99.90
24207;DHT22;12351;52.284;9.160;2023-03-21T03:54:42;7.90;99.90
24207;DHT22;12351;52.284;9.160;2023-03-21T03:57:33;7.90;99.90
24207;DHT22;12351;52.284;9.160;2023-03-21T04:00:26;7.90;99.90
24207;DHT22;12351;52.284;9.160;2023-03-21T04:03:17;7.90;99.90
24207;DHT22;12351;52.284;9.160;2023-03-21T04:06:06;7.90;99.90
24207;DHT22;12351;52.284;9.160;2023-03-21T04:08:57;8.00;99.90
24207;DHT22;12351;52.284;9.160;2023-03-21T04:11:50;7.90;99.90
24207;DHT22;12351;52.284;9.160;2023-03-21T04:14:39;7.90;99.90
24207;DHT22;12351;52.284;9.160;2023-03-21T04:17:30;8.00;99.90
24207;DHT22;12351;52.284;9.160;2023-03-21T04:20:21;8.00;99.90
24207;DHT22;12351;52.284;9.160;2023-03-21T04:23:12;8.00;99.90
24207;DHT22;12351;52.284;9.160;2023-03-21T04:26:03;8.00;99.90
24207;DHT22;12351;52.284;9.160;2023-03-21T04:28:56;8.00;99.90
24207;DHT22;12351;52.284;9.160;2023-03-21T04:31:47;8.00;99.90
24207;DHT22;12351;52.284;9.160;2023-03-21T04:34:39;8.00;99.90
24207;DHT22;12351;52.284;9.160;2023-03-21T04:37:31;8.00;99.90
24207;DHT22;12351;52.284;9.160;2023-03-21T04:40:20;7.90;99.90
24207;DHT22;12351;52.284;9.160;2023-03-21T04:43:10;8.00;99.90
24207;DHT22;12351;52.284;9.160;2023-03-21T04:46:04;8.00;99.90
24207;DHT22;12351;52.284;9.160;2023-03-21T04:48:55;8.00;99.90
24207;DHT22;12351;52.284;9.160;2023-03-21T04:51:44;8.00;99.90
24207;DHT22;12351;52.284;9.160;2023-03-21T04:54:37;8.00;99.90
24207;DHT22;12351;52.284;9.160;2023-03-21T04:57:27;8.00;99.90
24207;DHT22;12351;52.284;9.160;2023-03-21T05:00:17;7.90;99.90
24207;DHT22;12351;52.284;9.160;2023-03-21T05:03:08;7.90;99.90
24207;DHT22;12351;52.284;9.160;2023-03-21T05:06:01;7.90;99.90
24207;DHT22;12351;52.284;9.160;2023-03-21T05:08:53;7.90;99.90
24207;DHT22;12351;52.284;9.160;2023-03-21T05:11:41;8.00;99.90
24207;DHT22;12351;52.284;9.160;2023-03-21T05:14:32;8.00;99.90
24207;DHT22;12351;52.284;9.160;2023-03-21T05:17:23;8.00;99.90
24207;DHT22;12351;52.284;9.160;2023-03-21T05:20:16;8.10;99.90
24207;DHT22;12351;52.284;9.160;2023-03-21T05:23:06;8.00;99.90
24207;DHT22;12351;52.284;9.160;2023-03-21T05:25:59;8.00;99.90
24207;DHT22;12351;52.284;9.160;2023-03-21T05:28:52;8.00;99.90
24207;DHT22;12351;52.284;9.160;2023-03-21T05:31:42;8.00;99.90
24207;DHT22;12351;52.284;9.160;2023-03-21T05:34:33;8.00;99.90
24207;DHT22;12351;52.284;9.160;2023-03-21T05:37:24;8.10;99.90
24207;DHT22;12351;52.284;9.160;2023-03-21T05:40:14;8.10;99.90
24207;DHT22;12351;52.284;9.160;2023-03-21T05:43:07;8.00;99.90
24207;DHT22;12351;52.284;9.160;2023-03-21T05:45:58;8.00;99.90
24207;DHT22;12351;52.284;9.160;2023-03-21T05:48:49;8.10;99.90
24207;DHT22;12351;52.284;9.160;2023-03-21T05:51:38;8.10;99.90
24207;DHT22;12351;52.284;9.160;2023-03-21T05:54:31;8.10;99.90
24207;DHT22;12351;52.284;9.160;2023-03-21T05:57:21;8.10;99.90
24207;DHT22;12351;52.284;9.160;2023-03-21T06:00:12;8.10;99.90
24207;DHT22;12351;52.284;9.160;2023-03-21T06:03:02;8.10;99.90
24207;DHT22;12351;52.284;9.160;2023-03-21T06:05:52;8.10;99.90
24207;DHT22;12351;52.284;9.160;2023-03-21T06:08:44;8.20;99.90
24207;DHT22;12351;52.284;9.160;2023-03-21T06:11:35;8.10;99.90
24207;DHT22;12351;52.284;9.160;2023-03-21T06:14:27;8.20;99.90
24207;DHT22;12351;52.284;9.160;2023-03-21T06:17:18;8.10;99.90
24207;DHT22;12351;52.284;9.160;2023-03-21T06:20:09;8.20;99.90
24207;DHT22;12351;52.284;9.160;2023-03-21T06:22:57;8.20;99.90
24207;DHT22;12351;52.284;9.160;2023-03-21T06:25:52;8.20;99.90
24207;DHT22;12351;52.284;9.160;2023-03-21T06:28:41;8.20;99.90
24207;DHT22;12351;52.284;9.160;2023-03-21T06:31:32;8.20;99.90
24207;DHT22;12351;52.284;9.160;2023-03-21T06:34:22;8.30;99.90
24207;DHT22;12351;52.284;9.160;2023-03-21T06:37:12;8.30;99.90
24207;DHT22;12351;52.284;9.160;2023-03-21T06:40:04;8.30;99.90
24207;DHT22;12351;52.284;9.160;2023-03-21T06:42:56;8.30;99.90
24207;DHT22;12351;52.284;9.160;2023-03-21T06:45:45;8.30;99.90
24207;DHT22;12351;52.284;9.160;2023-03-21T06:48:34;8.40;99.90
24207;DHT22;12351;52.284;9.160;2023-03-21T06:51:23;8.30;99.90
24207;DHT22;12351;52.284;9.160;2023-03-21T06:54:13;8.30;99.90
24207;DHT22;12351;52.284;9.160;2023-03-21T06:57:05;8.40;99.90
24207;DHT22;12351;52.284;9.160;2023-03-21T06:59:54;8.40;99.90
24207;DHT22;12351;52.284;9.160;2023-03-21T07:02:44;8.40;99.90
24207;DHT22;12351;52.284;9.160;2023-03-21T07:05:34;8.40;99.90
24207;DHT22;12351;52.284;9.160;2023-03-21T07:08:24;8.50;99.90
24207;DHT22;12351;52.284;9.160;2023-03-21T07:11:14;8.50;99.90
24207;DHT22;12351;52.284;9.160;2023-03-21T07:14:06;8.50;99.90
24207;DHT22;12351;52.284;9.160;2023-03-21T07:16:58;8.60;99.90
24207;DHT22;12351;52.284;9.160;2023-03-21T07:19:46;8.60;99.90
24207;DHT22;12351;52.284;9.160;2023-03-21T07:22:39;8.60;99.90
24207;DHT22;12351;52.284;9.160;2023-03-21T07:25:30;8.60;99.90
24207;DHT22;12351;52.284;9.160;2023-03-21T07:28:23;8.60;99.90
24207;DHT22;12351;52.284;9.160;2023-03-21T07:31:14;8.70;99.90
24207;DHT22;12351;52.284;9.160;2023-03-21T07:34:04;8.80;99.90
24207;DHT22;12351;52.284;9.160;2023-03-21T07:36:52;8.80;99.90
24207;DHT22;12351;52.284;9.160;2023-03-21T07:39:44;8.80;99.90
24207;DHT22;12351;52.284;9.160;2023-03-21T07:42:35;8.80;99.90
24207;DHT22;12351;52.284;9.160;2023-03-21T07:45:28;8.80;99.90
24207;DHT22;12351;52.284;9.160;2023-03-21T07:48:18;8.90;99.90
24207;DHT22;12351;52.284;9.160;2023-03-21T07:51:07;8.90;99.90
24207;DHT22;12351;52.284;9.160;2023-03-21T07:54:00;9.00;99.90
24207;DHT22;12351;52.284;9.160;2023-03-21T07:56:50;9.00;99.90
24207;DHT22;12351;52.284;9.160;2023-03-21T07:59:42;9.00;99.90
24207;DHT22;12351;52.284;9.160;2023-03-21T08:02:30;9.00;99.90
24207;DHT22;12351;52.284;9.160;2023-03-21T08:05:22;9.10;99.90
24207;DHT22;12351;52.284;9.160;2023-03-21T08:08:15;9.10;99.90
24207;DHT22;12351;52.284;9.160;2023-03-21T08:13:59;9.20;99.90
24207;DHT22;12351;52.284;9.160;2023-03-21T08:16:48;9.30;99.90
24207;DHT22;12351;52.284;9.160;2023-03-21T08:19:38;9.40;99.90
24207;DHT22;12351;52.284;9.160;2023-03-21T08:22:27;9.50;99.90
24207;DHT22;12351;52.284;9.160;2023-03-21T08:25:21;9.50;99.90
24207;DHT22;12351;52.284;9.160;2023-03-21T08:28:11;9.50;99.90
24207;DHT22;12351;52.284;9.160;2023-03-21T08:30:59;9.60;99.90
24207;DHT22;12351;52.284;9.160;2023-03-21T08:33:52;9.80;99.90
24207;DHT22;12351;52.284;9.160;2023-03-21T08:36:41;9.80;99.90
24207;DHT22;12351;52.284;9.160;2023-03-21T08:39:32;9.90;99.90
24207;DHT22;12351;52.284;9.160;2023-03-21T08:42:22;10.00;99.90
24207;DHT22;12351;52.284;9.160;2023-03-21T08:45:13;10.00;99.90
24207;DHT22;12351;52.284;9.160;2023-03-21T08:48:03;10.10;99.90
24207;DHT22;12351;52.284;9.160;2023-03-21T08:50:52;10.10;99.90
24207;DHT22;12351;52.284;9.160;2023-03-21T08:53:45;10.20;99.90
24207;DHT22;12351;52.284;9.160;2023-03-21T08:56:33;10.10;99.90
24207;DHT22;12351;52.284;9.160;2023-03-21T08:59:24;10.10;99.90
24207;DHT22;12351;52.284;9.160;2023-03-21T09:02:18;10.10;99.90
24207;DHT22;12351;52.284;9.160;2023-03-21T09:05:08;10.30;99.90
24207;DHT22;12351;52.284;9.160;2023-03-21T09:07:57;10.20;96.00
24207;DHT22;12351;52.284;9.160;2023-03-21T09:10:46;10.10;99.90
24207;DHT22;12351;52.284;9.160;2023-03-21T09:13:37;10.00;99.90
24207;DHT22;12351;52.284;9.160;2023-03-21T09:16:30;10.00;99.90
24207;DHT22;12351;52.284;9.160;2023-03-21T09:19:18;10.00;99.90
24207;DHT22;12351;52.284;9.160;2023-03-21T09:22:09;10.00;99.90
24207;DHT22;12351;52.284;9.160;2023-03-21T09:24:59;10.00;99.90
24207;DHT22;12351;52.284;9.160;2023-03-21T09:27:50;10.10;99.90
24207;DHT22;12351;52.284;9.160;2023-03-21T09:30:40;10.20;99.90
24207;DHT22;12351;52.284;9.160;2023-03-21T09:33:31;10.20;99.90
24207;DHT22;12351;52.284;9.160;2023-03-21T09:36:21;10.20;99.90
24207;DHT22;12351;52.284;9.160;2023-03-21T09:39:12;10.20;99.90
24207;DHT22;12351;52.284;9.160;2023-03-21T09:42:06;10.20;99.90
24207;DHT22;12351;52.284;9.160;2023-03-21T09:44:58;10.10;87.70
24207;DHT22;12351;52.284;9.160;2023-03-21T09:47:46;10.10;98.60
24207;DHT22;12351;52.284;9.160;2023-03-21T09:50:37;10.10;99.90
24207;DHT22;12351;52.284;9.160;2023-03-21T09:53:29;10.10;99.90
24207;DHT22;12351;52.284;9.160;2023-03-21T09:56:18;10.20;99.90
24207;DHT22;12351;52.284;9.160;2023-03-21T09:59:09;10.20;99.90
24207;DHT22;12351;52.284;9.160;2023-03-21T10:01:56;10.10;99.90
24207;DHT22;12351;52.284;9.160;2023-03-21T10:04:48;10.10;99.90
24207;DHT22;12351;52.284;9.160;2023-03-21T10:07:40;10.00;99.90
24207;DHT22;12351;52.284;9.160;2023-03-21T10:10:31;10.00;99.90
24207;DHT22;12351;52.284;9.160;2023-03-21T10:13:23;10.00;99.90
24207;DHT22;12351;52.284;9.160;2023-03-21T10:16:13;10.00;99.90
24207;DHT22;12351;52.284;9.160;2023-03-21T10:19:02;10.10;99.90
24207;DHT22;12351;52.284;9.160;2023-03-21T10:21:53;10.10;99.90
24207;DHT22;12351;52.284;9.160;2023-03-21T10:24:40;10.00;99.90
24207;DHT22;12351;52.284;9.160;2023-03-21T10:27:31;10.10;99.90
24207;DHT22;12351;52.284;9.160;2023-03-21T10:33:14;10.10;99.90
24207;DHT22;12351;52.284;9.160;2023-03-21T10:36:04;10.10;99.90
24207;DHT22;12351;52.284;9.160;2023-03-21T10:38:56;10.10;99.90
24207;DHT22;12351;52.284;9.160;2023-03-21T10:41:45;10.10;99.90
24207;DHT22;12351;52.284;9.160;2023-03-21T10:44:35;10.10;99.90
24207;DHT22;12351;52.284;9.160;2023-03-21T10:47:29;10.00;99.90
24207;DHT22;12351;52.284;9.160;2023-03-21T10:50:18;10.00;99.90
24207;DHT22;12351;52.284;9.160;2023-03-21T10:53:13;10.00;99.90
24207;DHT22;12351;52.284;9.160;2023-03-21T10:56:05;10.10;99.90
24207;DHT22;12351;52.284;9.160;2023-03-21T10:58:59;10.10;99.90
24207;DHT22;12351;52.284;9.160;2023-03-21T11:01:49;10.20;99.90
24207;DHT22;12351;52.284;9.160;2023-03-21T11:04:41;10.20;99.90
24207;DHT22;12351;52.284;9.160;2023-03-21T11:07:30;10.10;99.90
24207;DHT22;12351;52.284;9.160;2023-03-21T11:16:08;10.10;99.90
24207;DHT22;12351;52.284;9.160;2023-03-21T11:18:59;10.10;99.90
24207;DHT22;12351;52.284;9.160;2023-03-21T11:21:47;10.10;99.90
24207;DHT22;12351;52.284;9.160;2023-03-21T11:24:37;10.20;99.90
24207;DHT22;12351;52.284;9.160;2023-03-21T11:27:31;10.20;99.90
24207;DHT22;12351;52.284;9.160;2023-03-21T11:30:23;10.10;99.90
24207;DHT22;12351;52.284;9.160;2023-03-21T11:33:11;10.20;99.90
24207;DHT22;12351;52.284;9.160;2023-03-21T11:36:05;10.30;99.90
24207;DHT22;12351;52.284;9.160;2023-03-21T11:38:57;10.20;99.90
24207;DHT22;12351;52.284;9.160;2023-03-21T11:41:50;10.20;99.90
24207;DHT22;12351;52.284;9.160;2023-03-21T11:44:43;10.20;99.90
24207;DHT22;12351;52.284;9.160;2023-03-21T11:47:32;10.20;99.90
24207;DHT22;12351;52.284;9.160;2023-03-21T11:59:05;10.40;99.90
24207;DHT22;12351;52.284;9.160;2023-03-21T12:04:45;10.60;99.90
24207;DHT22;12351;52.284;9.160;2023-03-21T12:16:00;10.60;99.90
24207;DHT22;12351;52.284;9.160;2023-03-21T12:21:44;10.60;99.90
24207;DHT22;12351;52.284;9.160;2023-03-21T12:36:00;10.60;99.90
24207;DHT22;12351;52.284;9.160;2023-03-21T12:44:31;10.70;99.90
24207;DHT22;12351;52.284;9.160;2023-03-21T12:47:23;10.60;99.90
24207;DHT22;12351;52.284;9.160;2023-03-21T12:50:17;10.50;99.90
24207;DHT22;12351;52.284;9.160;2023-03-21T12:56:00;10.50;99.90
24207;DHT22;12351;52.284;9.160;2023-03-21T12:58:52;10.40;99.90
24207;DHT22;12351;52.284;9.160;2023-03-21T13:01:44;10.40;99.90
24207;DHT22;12351;52.284;9.160;2023-03-21T13:04:35;10.40;99.90
24207;DHT22;12351;52.284;9.160;2023-03-21T13:07:27;10.40;99.90
24207;DHT22;12351;52.284;9.160;2023-03-21T13:10:17;10.30;99.90
24207;DHT22;12351;52.284;9.160;2023-03-21T13:21:23;10.40;99.90
24207;DHT22;12351;52.284;9.160;2023-03-21T13:27:03;10.30;99.90
24207;DHT22;12351;52.284;9.160;2023-03-21T13:29:56;10.30;99.90
24207;DHT22;12351;52.284;9.160;2023-03-21T13:32:47;10.30;99.90
24207;DHT22;12351;52.284;9.160;2023-03-21T13:35:38;10.40;99.90
24207;DHT22;12351;52.284;9.160;2023-03-21T13:38:29;10.40;99.90
24207;DHT22;12351;52.284;9.160;2023-03-21T13:41:21;10.40;99.90
24207;DHT22;12351;52.284;9.160;2023-03-21T13:47:03;10.40;99.90
24207;DHT22;12351;52.284;9.160;2023-03-21T13:55:35;10.50;99.90
24207;DHT22;12351;52.284;9.160;2023-03-21T14:04:12;10.40;99.90
24207;DHT22;12351;52.284;9.160;2023-03-21T14:07:02;10.40;99.90
24207;DHT22;12351;52.284;9.160;2023-03-21T14:09:53;10.40;99.90
24207;DHT22;12351;52.284;9.160;2023-03-21T14:12:44;10.40;99.90
24207;DHT22;12351;52.284;9.160;2023-03-21T14:18:25;10.30;99.90
24207;DHT22;12351;52.284;9.160;2023-03-21T14:21:16;10.40;99.90
24207;DHT22;12351;52.284;9.160;2023-03-21T14:24:05;10.50;99.90
24207;DHT22;12351;52.284;9.160;2023-03-21T14:26:55;10.50;99.90
24207;DHT22;12351;52.284;9.160;2023-03-21T14:29:45;10.50;99.90
24207;DHT22;12351;52.284;9.160;2023-03-21T14:32:36;10.50;99.90
24207;DHT22;12351;52.284;9.160;2023-03-21T14:35:30;10.40;99.90
24207;DHT22;12351;52.284;9.160;2023-03-21T14:38:22;10.50;99.90
24207;DHT22;12351;52.284;9.160;2023-03-21T14:44:10;10.40;99.90
24207;DHT22;12351;52.284;9.160;2023-03-21T14:49:49;10.40;99.90
24207;DHT22;12351;52.284;9.160;2023-03-21T14:52:39;10.50;99.90
24207;DHT22;12351;52.284;9.160;2023-03-21T14:55:28;10.50;99.90
24207;DHT22;12351;52.284;9.160;2023-03-21T14:58:20;10.50;99.90
24207;DHT22;12351;52.284;9.160;2023-03-21T15:01:13;10.50;99.90
24207;DHT22;12351;52.284;9.160;2023-03-21T15:04:03;10.40;99.90
24207;DHT22;12351;52.284;9.160;2023-03-21T15:06:55;10.40;99.90
24207;DHT22;12351;52.284;9.160;2023-03-21T15:09:42;10.40;99.90
24207;DHT22;12351;52.284;9.160;2023-03-21T15:12:45;10.30;99.90
24207;DHT22;12351;52.284;9.160;2023-03-21T15:15:28;10.30;99.90
24207;DHT22;12351;52.284;9.160;2023-03-21T15:21:13;10.40;99.90
24207;DHT22;12351;52.284;9.160;2023-03-21T15:24:02;10.40;99.90
24207;DHT22;12351;52.284;9.160;2023-03-21T15:26:55;10.30;99.90
24207;DHT22;12351;52.284;9.160;2023-03-21T15:29:46;10.40;99.90
24207;DHT22;12351;52.284;9.160;2023-03-21T15:32:35;10.40;99.90
24207;DHT22;12351;52.284;9.160;2023-03-21T15:35:27;10.30;99.90
24207;DHT22;12351;52.284;9.160;2023-03-21T15:44:04;10.30;99.90
24207;DHT22;12351;52.284;9.160;2023-03-21T15:46:53;10.40;99.90
24207;DHT22;12351;52.284;9.160;2023-03-21T15:49:45;10.30;99.90
24207;DHT22;12351;52.284;9.160;2023-03-21T15:52:36;10.40;99.90
24207;DHT22;12351;52.284;9.160;2023-03-21T15:58:17;10.40;99.90
24207;DHT22;12351;52.284;9.160;2023-03-21T16:06:51;10.40;99.90
24207;DHT22;12351;52.284;9.160;2023-03-21T16:09:43;10.40;99.90
24207;DHT22;12351;52.284;9.160;2023-03-21T16:12:32;10.40;99.90
24207;DHT22;12351;52.284;9.160;2023-03-21T16:15:26;10.40;99.90
24207;DHT22;12351;52.284;9.160;2023-03-21T16:18:17;10.40;99.90
24207;DHT22;12351;52.284;9.160;2023-03-21T16:21:08;10.40;99.90
24207;DHT22;12351;52.284;9.160;2023-03-21T16:23:56;10.40;99.90
24207;DHT22;12351;52.284;9.160;2023-03-21T16:26:47;10.50;99.90
24207;DHT22;12351;52.284;9.160;2023-03-21T16:29:38;10.50;99.90
24207;DHT22;12351;52.284;9.160;2023-03-21T16:32:33;10.40;99.90
24207;DHT22;12351;52.284;9.160;2023-03-21T16:35:22;10.40;99.90
24207;DHT22;12351;52.284;9.160;2023-03-21T16:38:15;10.40;99.90
24207;DHT22;12351;52.284;9.160;2023-03-21T16:41:08;10.40;99.90
24207;DHT22;12351;52.284;9.160;2023-03-21T16:43:57;10.40;99.90
24207;DHT22;12351;52.284;9.160;2023-03-21T16:46:49;10.40;99.90
24207;DHT22;12351;52.284;9.160;2023-03-21T16:49:41;10.40;99.90
24207;DHT22;12351;52.284;9.160;2023-03-21T16:52:34;10.40;99.90
24207;DHT22;12351;52.284;9.160;2023-03-21T16:55:23;10.40;99.90
24207;DHT22;12351;52.284;9.160;2023-03-21T16:58:15;10.40;99.90
24207;DHT22;12351;52.284;9.160;2023-03-21T17:01:04;10.50;99.90
24207;DHT22;12351;52.284;9.160;2023-03-21T17:03:53;10.50;99.90
24207;DHT22;12351;52.284;9.160;2023-03-21T17:06:46;10.60;99.90
24207;DHT22;12351;52.284;9.160;2023-03-21T17:09:34;10.70;99.90
24207;DHT22;12351;52.284;9.160;2023-03-21T17:12:28;10.70;99.90
24207;DHT22;12351;52.284;9.160;2023-03-21T17:15:18;10.80;99.90
24207;DHT22;12351;52.284;9.160;2023-03-21T17:18:11;10.80;99.90
24207;DHT22;12351;52.284;9.160;2023-03-21T17:21:04;10.60;99.90
24207;DHT22;12351;52.284;9.160;2023-03-21T17:23:51;10.60;99.90
24207;DHT22;12351;52.284;9.160;2023-03-21T17:26:45;10.60;99.90
24207;DHT22;12351;52.284;9.160;2023-03-21T17:29:34;10.60;99.90
24207;DHT22;12351;52.284;9.160;2023-03-21T17:32:25;10.50;99.90
24207;DHT22;12351;52.284;9.160;2023-03-21T17:35:16;10.40;99.90
24207;DHT22;12351;52.284;9.160;2023-03-21T17:38:09;10.50;99.90
24207;DHT22;12351;52.284;9.160;2023-03-21T17:41:00;10.40;62.90
24207;DHT22;12351;52.284;9.160;2023-03-21T17:43:53;10.40;44.40
24207;DHT22;12351;52.284;9.160;2023-03-21T17:46:42;10.50;49.10
24207;DHT22;12351;52.284;9.160;2023-03-21T17:49:35;10.40;33.10
24207;DHT22;12351;52.284;9.160;2023-03-21T17:52:23;10.40;52.70
24207;DHT22;12351;52.284;9.160;2023-03-21T17:55:15;10.30;10.20
24207;DHT22;12351;52.284;9.160;2023-03-21T17:58:06;10.30;6.80
24207;DHT22;12351;52.284;9.160;2023-03-21T18:00:57;10.20;1.00
24207;DHT22;12351;52.284;9.160;2023-03-21T18:03:46;10.10;1.00
24207;DHT22;12351;52.284;9.160;2023-03-21T18:06:34;10.10;1.00
24207;DHT22;12351;52.284;9.160;2023-03-21T18:09:27;10.10;1.00
24207;DHT22;12351;52.284;9.160;2023-03-21T18:12:17;10.10;1.00
24207;DHT22;12351;52.284;9.160;2023-03-21T18:15:07;10.00;1.00
24207;DHT22;12351;52.284;9.160;2023-03-21T18:17:59;10.00;1.00
24207;DHT22;12351;52.284;9.160;2023-03-21T18:20:53;10.00;1.00
24207;DHT22;12351;52.284;9.160;2023-03-21T18:23:42;10.00;1.00
24207;DHT22;12351;52.284;9.160;2023-03-21T18:26:34;10.00;1.00
24207;DHT22;12351;52.284;9.160;2023-03-21T18:29:23;10.00;1.00
24207;DHT22;12351;52.284;9.160;2023-03-21T18:32:13;10.00;1.00
24207;DHT22;12351;52.284;9.160;2023-03-21T18:35:07;10.00;1.00
24207;DHT22;12351;52.284;9.160;2023-03-21T18:37:56;10.00;1.00
24207;DHT22;12351;52.284;9.160;2023-03-21T18:40:47;10.00;1.00
24207;DHT22;12351;52.284;9.160;2023-03-21T18:43:38;10.00;1.00
24207;DHT22;12351;52.284;9.160;2023-03-21T18:46:29;10.10;1.00
24207;DHT22;12351;52.284;9.160;2023-03-21T18:49:21;10.10;1.00
24207;DHT22;12351;52.284;9.160;2023-03-21T18:52:10;10.10;1.00
24207;DHT22;12351;52.284;9.160;2023-03-21T18:55:01;10.10;1.00
24207;DHT22;12351;52.284;9.160;2023-03-21T18:57:53;10.10;1.00
24207;DHT22;12351;52.284;9.160;2023-03-21T19:00:42;10.10;1.00
24207;DHT22;12351;52.284;9.160;2023-03-21T19:03:33;10.10;1.00
24207;DHT22;12351;52.284;9.160;2023-03-21T19:06:23;10.10;1.00
24207;DHT22;12351;52.284;9.160;2023-03-21T19:09:13;10.10;1.00
24207;DHT22;12351;52.284;9.160;2023-03-21T19:12:06;10.00;1.00
24207;DHT22;12351;52.284;9.160;2023-03-21T19:14:55;10.00;1.00
24207;DHT22;12351;52.284;9.160;2023-03-21T19:17:48;10.00;1.00
24207;DHT22;12351;52.284;9.160;2023-03-21T19:20:35;10.00;1.00
24207;DHT22;12351;52.284;9.160;2023-03-21T19:23:27;10.00;1.00
24207;DHT22;12351;52.284;9.160;2023-03-21T19:26:19;10.00;1.00
24207;DHT22;12351;52.284;9.160;2023-03-21T19:29:09;10.00;1.00
24207;DHT22;12351;52.284;9.160;2023-03-21T19:32:03;10.00;1.00
24207;DHT22;12351;52.284;9.160;2023-03-21T19:34:51;10.00;1.00
24207;DHT22;12351;52.284;9.160;2023-03-21T19:37:43;10.00;1.00
24207;DHT22;12351;52.284;9.160;2023-03-21T19:40:33;10.00;1.00
24207;DHT22;12351;52.284;9.160;2023-03-21T19:43:23;10.00;1.00
24207;DHT22;12351;52.284;9.160;2023-03-21T19:46:15;10.00;1.00
24207;DHT22;12351;52.284;9.160;2023-03-21T19:49:07;10.00;1.00
24207;DHT22;12351;52.284;9.160;2023-03-21T19:51:58;10.00;1.00
24207;DHT22;12351;52.284;9.160;2023-03-21T19:54:49;10.00;1.00
24207;DHT22;12351;52.284;9.160;2023-03-21T19:57:39;10.00;1.00
24207;DHT22;12351;52.284;9.160;2023-03-21T20:00:30;10.00;1.00
24207;DHT22;12351;52.284;9.160;2023-03-21T20:03:22;10.00;1.00
24207;DHT22;12351;52.284;9.160;2023-03-21T20:06:11;10.00;1.00
24207;DHT22;12351;52.284;9.160;2023-03-21T20:09:00;10.00;1.00
24207;DHT22;12351;52.284;9.160;2023-03-21T20:11:52;10.00;1.00
24207;DHT22;12351;52.284;9.160;2023-03-21T20:14:42;10.00;1.00
24207;DHT22;12351;52.284;9.160;2023-03-21T20:17:33;9.90;1.00
24207;DHT22;12351;52.284;9.160;2023-03-21T20:20:25;9.90;1.00
24207;DHT22;12351;52.284;9.160;2023-03-21T20:23:17;9.90;1.00
24207;DHT22;12351;52.284;9.160;2023-03-21T20:26:07;9.90;1.00
24207;DHT22;12351;52.284;9.160;2023-03-21T20:28:58;9.90;1.00